Farmington, Iowa
Current Conditions -  °F | °C
As of 8:55 AM on Thursday 23 Oct 2014 (Local Time) from KEOK Reporting Station
Broken Clouds Broken Clouds  
Wind Chill: 54°   Ceiling: 5500
Heat Index: 54°   Visibility: 10mi
Dew Point: 43°   Wind: 9mph
Humidity: 67%   Direction: 190°S
Pressure: 30.12"   Gusts: NA
Location:  40.64°N, 91.74°W
Report Text: KEOK 231355Z AUTO 19008KT 10SM FEW047 BKN055 12/06 A3012 RMK AO2
Loading
Personal Weather Stations






























Interactive Weather Map
Tropical Storm Tracking
New forecast layout! Learn more

10-Day Weather Forecast

Advertisements
Track Severe Weather on mobile